sensor_id;sensor_type;location;lat;lon;timestamp;pressure;altitude;pressure_sealevel;temperature;humidity
36062;BME280;22123;52.412;20.970;2023-02-11T00:00:56;101929.19;;;0.17;100.00
36062;BME280;22123;52.412;20.970;2023-02-11T00:03:21;101973.97;;;0.43;100.00
36062;BME280;22123;52.412;20.970;2023-02-11T00:06:02;101988.16;;;0.61;100.00
36062;BME280;22123;52.412;20.970;2023-02-11T00:08:28;101891.13;;;-0.01;100.00
36062;BME280;22123;52.412;20.970;2023-02-11T00:10:57;101983.88;;;0.58;100.00
36062;BME280;22123;52.412;20.970;2023-02-11T00:13:24;101978.56;;;0.58;100.00
36062;BME280;22123;52.412;20.970;2023-02-11T00:15:49;101824.81;;;-0.37;100.00
36062;BME280;22123;52.412;20.970;2023-02-11T00:18:15;101805.63;;;-0.42;100.00
36062;BME280;22123;52.412;20.970;2023-02-11T00:20:42;101898.88;;;0.04;100.00
36062;BME280;22123;52.412;20.970;2023-02-11T00:23:08;101845.09;;;-0.17;100.00
36062;BME280;22123;52.412;20.970;2023-02-11T00:25:41;101963.53;;;0.59;100.00
36062;BME280;22123;52.412;20.970;2023-02-11T00:28:08;101934.44;;;0.38;100.00
36062;BME280;22123;52.412;20.970;2023-02-11T00:30:34;101855.41;;;-0.11;100.00
36062;BME280;22123;52.412;20.970;2023-02-11T00:33:00;101888.19;;;0.26;100.00
36062;BME280;22123;52.412;20.970;2023-02-11T00:35:26;101794.16;;;-0.22;100.00
36062;BME280;22123;52.412;20.970;2023-02-11T00:37:53;101827.59;;;-0.01;100.00
36062;BME280;22123;52.412;20.970;2023-02-11T00:40:19;101759.81;;;-0.43;100.00
36062;BME280;22123;52.412;20.970;2023-02-11T00:42:45;101856.66;;;0.20;100.00
36062;BME280;22123;52.412;20.970;2023-02-11T00:45:11;101779.22;;;-0.23;100.00
36062;BME280;22123;52.412;20.970;2023-02-11T00:47:37;101768.63;;;-0.23;100.00
36062;BME280;22123;52.412;20.970;2023-02-11T00:50:04;101701.44;;;-0.59;100.00
36062;BME280;22123;52.412;20.970;2023-02-11T00:52:31;101886.88;;;0.54;100.00
36062;BME280;22123;52.412;20.970;2023-02-11T00:54:57;101803.41;;;0.07;100.00
36062;BME280;22123;52.412;20.970;2023-02-11T00:57:23;101802.53;;;0.07;100.00
36062;BME280;22123;52.412;20.970;2023-02-11T00:59:49;101702.88;;;-0.51;100.00
36062;BME280;22123;52.412;20.970;2023-02-11T01:02:15;101883.34;;;0.54;100.00
36062;BME280;22123;52.412;20.970;2023-02-11T01:04:42;101707.03;;;-0.46;100.00
36062;BME280;22123;52.412;20.970;2023-02-11T01:07:08;101742.56;;;-0.13;100.00
36062;BME280;22123;52.412;20.970;2023-02-11T01:09:37;101731.13;;;-0.14;100.00
36062;BME280;22123;52.412;20.970;2023-02-11T01:12:03;101741.72;;;0.05;100.00
36062;BME280;22123;52.412;20.970;2023-02-11T01:14:31;101709.22;;;-0.18;100.00
36062;BME280;22123;52.412;20.970;2023-02-11T01:16:57;101751.94;;;0.13;100.00
36062;BME280;22123;52.412;20.970;2023-02-11T01:19:23;101698.31;;;-0.10;100.00
36062;BME280;22123;52.412;20.970;2023-02-11T01:21:48;101653.19;;;-0.45;100.00
36062;BME280;22123;52.412;20.970;2023-02-11T01:24:14;101747.75;;;0.09;100.00
36062;BME280;22123;52.412;20.970;2023-02-11T01:26:40;101819.72;;;0.55;100.00
36062;BME280;22123;52.412;20.970;2023-02-11T01:29:06;101726.56;;;0.09;100.00
36062;BME280;22123;52.412;20.970;2023-02-11T01:31:32;101769.75;;;0.28;100.00
36062;BME280;22123;52.412;20.970;2023-02-11T01:33:58;101697.19;;;-0.23;100.00
36062;BME280;22123;52.412;20.970;2023-02-11T01:36:24;101748.38;;;0.14;100.00
36062;BME280;22123;52.412;20.970;2023-02-11T01:38:50;101737.91;;;0.11;100.00
36062;BME280;22123;52.412;20.970;2023-02-11T01:41:15;101549.03;;;-1.18;100.00
36062;BME280;22123;52.412;20.970;2023-02-11T01:43:47;101809.81;;;0.59;100.00
36062;BME280;22123;52.412;20.970;2023-02-11T01:46:36;101795.72;;;0.58;100.00
36062;BME280;22123;52.412;20.970;2023-02-11T01:49:04;101780.72;;;0.57;100.00
36062;BME280;22123;52.412;20.970;2023-02-11T01:51:47;101668.44;;;-0.13;100.00
36062;BME280;22123;52.412;20.970;2023-02-11T01:54:18;101624.28;;;-0.30;100.00
36062;BME280;22123;52.412;20.970;2023-02-11T01:56:46;101772.69;;;0.59;100.00
36062;BME280;22123;52.412;20.970;2023-02-11T01:59:19;101757.81;;;0.56;100.00
36062;BME280;22123;52.412;20.970;2023-02-11T02:01:52;101755.16;;;0.56;100.00
36062;BME280;22123;52.412;20.970;2023-02-11T02:04:22;101741.22;;;0.52;100.00
36062;BME280;22123;52.412;20.970;2023-02-11T02:06:53;101677.66;;;0.16;100.00
36062;BME280;22123;52.412;20.970;2023-02-11T02:09:27;101561.53;;;-0.65;100.00
36062;BME280;22123;52.412;20.970;2023-02-11T02:11:54;101730.88;;;0.46;100.00
36062;BME280;22123;52.412;20.970;2023-02-11T02:14:20;101712.25;;;0.30;100.00
36062;BME280;22123;52.412;20.970;2023-02-11T02:16:46;101730.34;;;0.40;100.00
36062;BME280;22123;52.412;20.970;2023-02-11T02:25:04;101724.25;;;0.38;100.00
36062;BME280;22123;52.412;20.970;2023-02-11T02:33:28;101672.06;;;0.40;100.00
36062;BME280;22123;52.412;20.970;2023-02-11T02:36:21;101625.53;;;-0.01;100.00
36062;BME280;22123;52.412;20.970;2023-02-11T02:38:52;101696.84;;;0.39;100.00
36062;BME280;22123;52.412;20.970;2023-02-11T02:41:22;101685.47;;;0.37;100.00
36062;BME280;22123;52.412;20.970;2023-02-11T02:43:51;101569.72;;;-0.33;100.00
36062;BME280;22123;52.412;20.970;2023-02-11T02:46:27;101686.09;;;0.42;100.00
36062;BME280;22123;52.412;20.970;2023-02-11T02:48:55;101685.09;;;0.44;100.00
36062;BME280;22123;52.412;20.970;2023-02-11T03:08:09;101613.38;;;0.12;100.00
36062;BME280;22123;52.412;20.970;2023-02-11T03:10:42;101433.53;;;-0.80;100.00
36062;BME280;22123;52.412;20.970;2023-02-11T03:13:10;101600.53;;;0.22;100.00
36062;BME280;22123;52.412;20.970;2023-02-11T03:15:47;101458.66;;;-0.52;100.00
36062;BME280;22123;52.412;20.970;2023-02-11T03:18:18;101517.66;;;-0.15;100.00
36062;BME280;22123;52.412;20.970;2023-02-11T03:20:48;101643.78;;;0.58;100.00
36062;BME280;22123;52.412;20.970;2023-02-11T03:23:20;101626.94;;;0.59;100.00
36062;BME280;22123;52.412;20.970;2023-02-11T03:26:20;101614.53;;;0.59;100.00
36062;BME280;22123;52.412;20.970;2023-02-11T03:28:54;101608.47;;;0.57;100.00
36062;BME280;22123;52.412;20.970;2023-02-11T03:34:07;101496.09;;;-0.07;100.00
36062;BME280;22123;52.412;20.970;2023-02-11T03:36:39;101613.78;;;0.57;100.00
36062;BME280;22123;52.412;20.970;2023-02-11T03:39:08;101486.53;;;-0.27;100.00
36062;BME280;22123;52.412;20.970;2023-02-11T03:41:35;101602.63;;;0.50;100.00
36062;BME280;22123;52.412;20.970;2023-02-11T03:44:03;101480.00;;;-0.20;100.00
36062;BME280;22123;52.412;20.970;2023-02-11T03:46:37;101528.63;;;0.12;100.00
36062;BME280;22123;52.412;20.970;2023-02-11T03:49:11;101457.94;;;-0.21;100.00
36062;BME280;22123;52.412;20.970;2023-02-11T03:51:39;101536.81;;;0.25;100.00
36062;BME280;22123;52.412;20.970;2023-02-11T03:54:10;101471.88;;;-0.17;100.00
36062;BME280;22123;52.412;20.970;2023-02-11T03:56:42;101510.03;;;0.14;100.00
36062;BME280;22123;52.412;20.970;2023-02-11T03:59:11;101482.72;;;-0.04;100.00
36062;BME280;22123;52.412;20.970;2023-02-11T04:01:37;101461.75;;;-0.09;100.00
36062;BME280;22123;52.412;20.970;2023-02-11T04:04:03;101428.38;;;-0.29;100.00
36062;BME280;22123;52.412;20.970;2023-02-11T04:06:29;101408.16;;;-0.47;100.00
36062;BME280;22123;52.412;20.970;2023-02-11T04:08:55;101394.19;;;-0.51;100.00
36062;BME280;22123;52.412;20.970;2023-02-11T04:11:20;101452.72;;;-0.22;100.00
36062;BME280;22123;52.412;20.970;2023-02-11T04:13:46;101497.09;;;0.08;100.00
36062;BME280;22123;52.412;20.970;2023-02-11T04:16:12;101447.81;;;-0.12;100.00
36062;BME280;22123;52.412;20.970;2023-02-11T04:18:38;101341.72;;;-0.76;100.00
36062;BME280;22123;52.412;20.970;2023-02-11T04:21:04;101504.03;;;0.28;100.00
36062;BME280;22123;52.412;20.970;2023-02-11T04:23:30;101131.28;;;-2.01;100.00
36062;BME280;22123;52.412;20.970;2023-02-11T04:25:56;101387.06;;;-0.49;100.00
36062;BME280;22123;52.412;20.970;2023-02-11T04:28:22;101326.28;;;-0.85;100.00
36062;BME280;22123;52.412;20.970;2023-02-11T04:30:49;101386.50;;;-0.56;100.00
36062;BME280;22123;52.412;20.970;2023-02-11T04:33:15;101498.41;;;0.16;100.00
36062;BME280;22123;52.412;20.970;2023-02-11T04:35:41;101329.25;;;-0.74;100.00
36062;BME280;22123;52.412;20.970;2023-02-11T04:38:07;101380.88;;;-0.32;100.00
36062;BME280;22123;52.412;20.970;2023-02-11T04:40:33;101337.03;;;-0.54;100.00
36062;BME280;22123;52.412;20.970;2023-02-11T04:42:59;101451.09;;;0.10;100.00
36062;BME280;22123;52.412;20.970;2023-02-11T04:45:25;101374.19;;;-0.22;100.00
36062;BME280;22123;52.412;20.970;2023-02-11T04:47:51;101450.16;;;0.27;100.00
36062;BME280;22123;52.412;20.970;2023-02-11T04:50:17;101309.88;;;-0.57;100.00
36062;BME280;22123;52.412;20.970;2023-02-11T04:52:43;101426.25;;;0.29;100.00
36062;BME280;22123;52.412;20.970;2023-02-11T04:55:08;101364.13;;;-0.15;100.00
36062;BME280;22123;52.412;20.970;2023-02-11T04:57:34;101399.47;;;0.02;100.00
36062;BME280;22123;52.412;20.970;2023-02-11T05:00:00;101399.56;;;0.00;100.00
36062;BME280;22123;52.412;20.970;2023-02-11T05:02:26;101053.56;;;-2.13;100.00
36062;BME280;22123;52.412;20.970;2023-02-11T05:04:52;101300.00;;;-0.54;100.00
36062;BME280;22123;52.412;20.970;2023-02-11T05:07:18;101344.84;;;-0.17;100.00
36062;BME280;22123;52.412;20.970;2023-02-11T05:09:44;101419.75;;;0.34;100.00
36062;BME280;22123;52.412;20.970;2023-02-11T05:12:10;101370.25;;;0.03;100.00
36062;BME280;22123;52.412;20.970;2023-02-11T05:14:36;101319.84;;;-0.11;100.00
36062;BME280;22123;52.412;20.970;2023-02-11T05:17:01;101235.00;;;-0.75;100.00
36062;BME280;22123;52.412;20.970;2023-02-11T05:19:27;101334.53;;;-0.06;100.00
36062;BME280;22123;52.412;20.970;2023-02-11T05:21:53;101294.81;;;-0.22;100.00
36062;BME280;22123;52.412;20.970;2023-02-11T05:24:19;101330.00;;;-0.04;100.00
36062;BME280;22123;52.412;20.970;2023-02-11T05:26:51;101179.44;;;-0.91;100.00
36062;BME280;22123;52.412;20.970;2023-02-11T05:29:17;101308.38;;;-0.12;100.00
36062;BME280;22123;52.412;20.970;2023-02-11T05:31:43;101288.72;;;-0.24;100.00
36062;BME280;22123;52.412;20.970;2023-02-11T05:34:09;101385.09;;;0.39;100.00
36062;BME280;22123;52.412;20.970;2023-02-11T05:36:35;101190.56;;;-0.68;100.00
36062;BME280;22123;52.412;20.970;2023-02-11T05:39:01;101316.78;;;0.12;100.00
36062;BME280;22123;52.412;20.970;2023-02-11T05:41:26;101283.38;;;-0.06;100.00
36062;BME280;22123;52.412;20.970;2023-02-11T05:43:52;101166.34;;;-0.77;100.00
36062;BME280;22123;52.412;20.970;2023-02-11T05:46:18;101313.13;;;0.31;100.00
36062;BME280;22123;52.412;20.970;2023-02-11T05:48:44;101331.75;;;0.29;100.00
36062;BME280;22123;52.412;20.970;2023-02-11T05:51:10;101359.81;;;0.49;100.00
36062;BME280;22123;52.412;20.970;2023-02-11T05:53:36;101356.91;;;0.54;100.00
36062;BME280;22123;52.412;20.970;2023-02-11T05:56:02;101345.09;;;0.44;100.00
36062;BME280;22123;52.412;20.970;2023-02-11T05:58:28;101364.59;;;0.59;100.00
36062;BME280;22123;52.412;20.970;2023-02-11T06:00:54;101378.94;;;0.71;100.00
36062;BME280;22123;52.412;20.970;2023-02-11T06:03:20;101195.91;;;-0.37;100.00
36062;BME280;22123;52.412;20.970;2023-02-11T06:05:46;101212.84;;;-0.23;100.00
36062;BME280;22123;52.412;20.970;2023-02-11T06:08:12;101294.16;;;0.39;100.00
36062;BME280;22123;52.412;20.970;2023-02-11T06:10:38;101306.38;;;0.41;100.00
36062;BME280;22123;52.412;20.970;2023-02-11T06:13:04;101209.41;;;-0.09;100.00
36062;BME280;22123;52.412;20.970;2023-02-11T06:15:30;101267.00;;;0.35;100.00
36062;BME280;22123;52.412;20.970;2023-02-11T06:17:55;101287.00;;;0.41;100.00
36062;BME280;22123;52.412;20.970;2023-02-11T06:20:21;101310.56;;;0.61;100.00
36062;BME280;22123;52.412;20.970;2023-02-11T06:22:47;101264.94;;;0.40;100.00
36062;BME280;22123;52.412;20.970;2023-02-11T06:25:13;101195.00;;;-0.04;100.00
36062;BME280;22123;52.412;20.970;2023-02-11T06:27:39;101250.13;;;0.36;100.00
36062;BME280;22123;52.412;20.970;2023-02-11T06:30:06;101317.56;;;0.78;100.00
36062;BME280;22123;52.412;20.970;2023-02-11T06:32:32;101316.84;;;0.91;100.00
36062;BME280;22123;52.412;20.970;2023-02-11T06:34:58;101267.56;;;0.56;100.00
36062;BME280;22123;52.412;20.970;2023-02-11T06:37:24;101298.03;;;0.79;100.00
36062;BME280;22123;52.412;20.970;2023-02-11T06:39:49;101225.56;;;0.34;100.00
36062;BME280;22123;52.412;20.970;2023-02-11T06:42:15;101256.56;;;0.48;100.00
36062;BME280;22123;52.412;20.970;2023-02-11T06:44:41;101290.97;;;0.80;100.00
36062;BME280;22123;52.412;20.970;2023-02-11T06:47:07;101267.63;;;0.71;100.00
36062;BME280;22123;52.412;20.970;2023-02-11T06:49:33;101228.91;;;0.52;100.00
36062;BME280;22123;52.412;20.970;2023-02-11T06:52:00;101217.22;;;0.56;100.00
36062;BME280;22123;52.412;20.970;2023-02-11T06:54:26;101235.06;;;0.68;100.00
36062;BME280;22123;52.412;20.970;2023-02-11T06:56:52;101275.16;;;0.93;100.00
36062;BME280;22123;52.412;20.970;2023-02-11T06:59:18;101200.97;;;0.46;100.00
36062;BME280;22123;52.412;20.970;2023-02-11T07:01:44;101281.75;;;1.01;100.00
36062;BME280;22123;52.412;20.970;2023-02-11T07:04:10;101243.84;;;0.69;100.00
36062;BME280;22123;52.412;20.970;2023-02-11T07:06:37;101220.31;;;0.48;100.00
36062;BME280;22123;52.412;20.970;2023-02-11T07:09:03;101296.78;;;1.01;100.00
36062;BME280;22123;52.412;20.970;2023-02-11T07:11:30;101250.00;;;0.69;100.00
36062;BME280;22123;52.412;20.970;2023-02-11T07:14:03;101195.72;;;0.30;100.00
36062;BME280;22123;52.412;20.970;2023-02-11T07:16:30;101162.94;;;0.17;100.00
36062;BME280;22123;52.412;20.970;2023-02-11T07:18:56;101318.28;;;0.96;100.00
36062;BME280;22123;52.412;20.970;2023-02-11T07:21:22;101260.69;;;0.68;100.00
36062;BME280;22123;52.412;20.970;2023-02-11T07:23:48;101172.94;;;0.28;100.00
36062;BME280;22123;52.412;20.970;2023-02-11T07:26:17;101210.25;;;0.39;100.00
36062;BME280;22123;52.412;20.970;2023-02-11T07:28:43;101235.19;;;0.51;100.00
36062;BME280;22123;52.412;20.970;2023-02-11T07:31:18;101293.34;;;0.84;100.00
36062;BME280;22123;52.412;20.970;2023-02-11T07:33:44;101151.16;;;0.07;100.00
36062;BME280;22123;52.412;20.970;2023-02-11T07:36:11;101102.38;;;-0.20;100.00
36062;BME280;22123;52.412;20.970;2023-02-11T07:38:38;101083.50;;;-0.29;100.00
36062;BME280;22123;52.412;20.970;2023-02-11T07:41:09;101279.47;;;0.79;100.00
36062;BME280;22123;52.412;20.970;2023-02-11T07:43:37;101175.69;;;0.26;100.00
36062;BME280;22123;52.412;20.970;2023-02-11T07:46:07;101088.44;;;-0.39;100.00
36062;BME280;22123;52.412;20.970;2023-02-11T07:48:34;101274.22;;;0.63;100.00
36062;BME280;22123;52.412;20.970;2023-02-11T07:51:15;101269.91;;;0.77;100.00
36062;BME280;22123;52.412;20.970;2023-02-11T07:53:42;101271.63;;;0.78;100.00
36062;BME280;22123;52.412;20.970;2023-02-11T07:56:09;101055.44;;;-0.48;100.00
36062;BME280;22123;52.412;20.970;2023-02-11T07:58:35;101148.53;;;0.07;100.00
36062;BME280;22123;52.412;20.970;2023-02-11T08:01:06;101206.97;;;0.50;100.00
36062;BME280;22123;52.412;20.970;2023-02-11T08:03:33;101241.53;;;0.79;100.00
36062;BME280;22123;52.412;20.970;2023-02-11T08:06:07;101160.63;;;0.27;100.00
36062;BME280;22123;52.412;20.970;2023-02-11T08:08:34;101171.97;;;0.29;100.00
36062;BME280;22123;52.412;20.970;2023-02-11T08:11:08;101158.44;;;0.19;100.00
36062;BME280;22123;52.412;20.970;2023-02-11T08:13:35;101244.09;;;0.80;100.00
36062;BME280;22123;52.412;20.970;2023-02-11T08:16:02;101234.91;;;0.86;100.00
36062;BME280;22123;52.412;20.970;2023-02-11T08:18:29;101173.88;;;0.57;100.00
36062;BME280;22123;52.412;20.970;2023-02-11T08:20:55;101190.19;;;0.65;100.00
36062;BME280;22123;52.412;20.970;2023-02-11T08:23:21;101238.44;;;1.01;100.00
36062;BME280;22123;52.412;20.970;2023-02-11T08:25:48;101225.97;;;1.03;100.00
36062;BME280;22123;52.412;20.970;2023-02-11T08:28:14;101163.50;;;0.68;100.00
36062;BME280;22123;52.412;20.970;2023-02-11T08:30:40;101120.09;;;0.41;100.00
36062;BME280;22123;52.412;20.970;2023-02-11T08:33:07;101157.44;;;0.66;100.00
36062;BME280;22123;52.412;20.970;2023-02-11T08:35:34;101113.19;;;0.38;100.00
36062;BME280;22123;52.412;20.970;2023-02-11T08:38:00;101216.81;;;1.09;100.00
36062;BME280;22123;52.412;20.970;2023-02-11T08:40:26;101187.22;;;0.86;100.00
36062;BME280;22123;52.412;20.970;2023-02-11T08:42:52;101180.59;;;0.93;100.00
36062;BME280;22123;52.412;20.970;2023-02-11T08:45:18;101185.13;;;1.06;100.00
36062;BME280;22123;52.412;20.970;2023-02-11T08:47:44;101029.38;;;0.07;100.00
36062;BME280;22123;52.412;20.970;2023-02-11T08:50:09;101128.03;;;0.71;100.00
36062;BME280;22123;52.412;20.970;2023-02-11T08:52:35;101047.03;;;0.22;100.00
36062;BME280;22123;52.412;20.970;2023-02-11T08:55:01;101124.50;;;0.71;100.00
36062;BME280;22123;52.412;20.970;2023-02-11T08:57:27;101077.38;;;0.61;100.00
36062;BME280;22123;52.412;20.970;2023-02-11T08:59:53;101110.59;;;0.81;100.00
36062;BME280;22123;52.412;20.970;2023-02-11T09:02:19;101159.22;;;1.25;100.00
36062;BME280;22123;52.412;20.970;2023-02-11T09:04:45;101159.84;;;1.29;100.00
36062;BME280;22123;52.412;20.970;2023-02-11T09:07:11;101113.81;;;1.01;100.00
36062;BME280;22123;52.412;20.970;2023-02-11T09:09:36;100911.06;;;-0.22;100.00
36062;BME280;22123;52.412;20.970;2023-02-11T09:12:02;101095.75;;;0.93;100.00
36062;BME280;22123;52.412;20.970;2023-02-11T09:14:28;101051.31;;;0.68;100.00
36062;BME280;22123;52.412;20.970;2023-02-11T09:16:54;101148.22;;;1.17;100.00
36062;BME280;22123;52.412;20.970;2023-02-11T09:19:20;101039.38;;;0.46;100.00
36062;BME280;22123;52.412;20.970;2023-02-11T09:21:46;101031.06;;;0.38;100.00
36062;BME280;22123;52.412;20.970;2023-02-11T09:24:12;101115.13;;;0.79;100.00
36062;BME280;22123;52.412;20.970;2023-02-11T09:26:40;101104.41;;;0.66;100.00
36062;BME280;22123;52.412;20.970;2023-02-11T09:29:06;101125.94;;;0.91;100.00
36062;BME280;22123;52.412;20.970;2023-02-11T09:31:33;101047.16;;;0.35;100.00
36062;BME280;22123;52.412;20.970;2023-02-11T09:34:01;101169.72;;;1.12;100.00
36062;BME280;22123;52.412;20.970;2023-02-11T09:36:30;101162.59;;;0.98;100.00
36062;BME280;22123;52.412;20.970;2023-02-11T09:38:58;101107.81;;;0.54;100.00
36062;BME280;22123;52.412;20.970;2023-02-11T09:41:41;101001.94;;;-0.07;100.00
36062;BME280;22123;52.412;20.970;2023-02-11T09:44:19;101146.84;;;0.81;100.00
36062;BME280;22123;52.412;20.970;2023-02-11T09:46:52;101076.63;;;0.29;100.00
36062;BME280;22123;52.412;20.970;2023-02-11T09:49:23;101085.28;;;0.47;100.00
36062;BME280;22123;52.412;20.970;2023-02-11T09:52:14;101180.78;;;0.90;100.00
36062;BME280;22123;52.412;20.970;2023-02-11T09:54:58;101091.31;;;0.34;100.00
36062;BME280;22123;52.412;20.970;2023-02-11T09:57:29;101124.66;;;0.53;100.00
36062;BME280;22123;52.412;20.970;2023-02-11T09:59:56;101143.78;;;0.58;100.00
36062;BME280;22123;52.412;20.970;2023-02-11T10:02:29;101095.56;;;0.37;100.00
36062;BME280;22123;52.412;20.970;2023-02-11T10:07:38;101058.91;;;0.15;100.00
36062;BME280;22123;52.412;20.970;2023-02-11T10:10:20;101151.41;;;0.79;100.00
36062;BME280;22123;52.412;20.970;2023-02-11T10:19:07;101099.13;;;0.81;100.00
36062;BME280;22123;52.412;20.970;2023-02-11T10:22:07;100964.13;;;0.06;100.00
36062;BME280;22123;52.412;20.970;2023-02-11T10:24:34;100953.91;;;-0.01;100.00
36062;BME280;22123;52.412;20.970;2023-02-11T10:27:10;100917.19;;;-0.36;100.00
36062;BME280;22123;52.412;20.970;2023-02-11T10:29:52;101003.78;;;0.36;100.00
36062;BME280;22123;52.412;20.970;2023-02-11T10:32:46;100994.38;;;0.32;100.00
36062;BME280;22123;52.412;20.970;2023-02-11T10:35:19;101067.13;;;0.84;100.00
36062;BME280;22123;52.412;20.970;2023-02-11T10:37:46;100931.41;;;-0.08;100.00
36062;BME280;22123;52.412;20.970;2023-02-11T10:40:21;100930.69;;;0.05;100.00
36062;BME280;22123;52.412;20.970;2023-02-11T10:42:52;101052.00;;;0.86;100.00
36062;BME280;22123;52.412;20.970;2023-02-11T10:45:41;100964.06;;;0.36;100.00
36062;BME280;22123;52.412;20.970;2023-02-11T10:53:33;101048.13;;;0.92;100.00
36062;BME280;22123;52.412;20.970;2023-02-11T10:55:59;100944.97;;;0.31;100.00
36062;BME280;22123;52.412;20.970;2023-02-11T10:58:38;101039.28;;;0.91;100.00
36062;BME280;22123;52.412;20.970;2023-02-11T11:01:05;100833.44;;;-0.51;100.00
36062;BME280;22123;52.412;20.970;2023-02-11T11:03:36;100969.84;;;0.43;100.00
36062;BME280;22123;52.412;20.970;2023-02-11T11:06:06;101064.47;;;0.98;100.00
36062;BME280;22123;52.412;20.970;2023-02-11T11:11:19;100952.63;;;0.21;100.00
36062;BME280;22123;52.412;20.970;2023-02-11T11:21:44;101064.88;;;1.07;100.00
36062;BME280;22123;52.412;20.970;2023-02-11T11:24:22;101048.75;;;1.10;100.00
36062;BME280;22123;52.412;20.970;2023-02-11T11:26:53;101046.78;;;1.13;100.00
36062;BME280;22123;52.412;20.970;2023-02-11T11:29:25;101043.34;;;1.11;100.00
36062;BME280;22123;52.412;20.970;2023-02-11T11:31:57;100906.28;;;0.28;100.00
36062;BME280;22123;52.412;20.970;2023-02-11T11:34:47;100957.25;;;0.61;100.00
36062;BME280;22123;52.412;20.970;2023-02-11T11:42:28;100998.66;;;1.05;100.00
36062;BME280;22123;52.412;20.970;2023-02-11T11:44:59;101004.03;;;1.18;100.00
36062;BME280;22123;52.412;20.970;2023-02-11T11:47:44;100966.41;;;0.84;100.00
36062;BME280;22123;52.412;20.970;2023-02-11T11:53:02;101000.16;;;1.24;100.00
36062;BME280;22123;52.412;20.970;2023-02-11T11:55:37;100882.44;;;0.43;100.00
36062;BME280;22123;52.412;20.970;2023-02-11T11:58:12;101016.06;;;1.24;100.00
36062;BME280;22123;52.412;20.970;2023-02-11T12:06:02;100952.38;;;0.96;100.00
36062;BME280;22123;52.412;20.970;2023-02-11T12:11:51;101002.50;;;1.28;100.00
36062;BME280;22123;52.412;20.970;2023-02-11T12:14:31;101008.53;;;1.30;100.00
36062;BME280;22123;52.412;20.970;2023-02-11T12:17:10;100933.56;;;0.86;100.00
36062;BME280;22123;52.412;20.970;2023-02-11T12:25:45;101016.88;;;1.38;100.00
36062;BME280;22123;52.412;20.970;2023-02-11T12:39:17;101032.66;;;1.54;100.00
36062;BME280;22123;52.412;20.970;2023-02-11T12:41:51;101025.34;;;1.58;100.00
36062;BME280;22123;52.412;20.970;2023-02-11T12:56:20;100806.22;;;0.33;100.00
36062;BME280;22123;52.412;20.970;2023-02-11T12:58:51;100969.94;;;1.39;100.00
36062;BME280;22123;52.412;20.970;2023-02-11T13:01:22;101026.75;;;1.77;100.00
36062;BME280;22123;52.412;20.970;2023-02-11T13:03:54;101016.59;;;1.83;100.00
36062;BME280;22123;52.412;20.970;2023-02-11T13:06:28;100999.84;;;1.83;100.00
36062;BME280;22123;52.412;20.970;2023-02-11T13:09:02;101005.88;;;1.85;100.00
36062;BME280;22123;52.412;20.970;2023-02-11T13:11:41;100953.47;;;1.61;100.00
36062;BME280;22123;52.412;20.970;2023-02-11T13:14:20;100914.22;;;1.39;100.00
36062;BME280;22123;52.412;20.970;2023-02-11T13:16:49;100945.53;;;1.61;100.00
36062;BME280;22123;52.412;20.970;2023-02-11T13:19:37;100826.13;;;0.81;100.00
36062;BME280;22123;52.412;20.970;2023-02-11T13:22:18;100952.63;;;1.61;100.00
36062;BME280;22123;52.412;20.970;2023-02-11T13:25:00;101006.53;;;2.01;100.00
36062;BME280;22123;52.412;20.970;2023-02-11T13:30:35;101021.44;;;2.04;100.00
36062;BME280;22123;52.412;20.970;2023-02-11T13:33:04;100933.81;;;1.51;100.00
36062;BME280;22123;52.412;20.970;2023-02-11T13:35:39;100902.44;;;1.30;100.00
36062;BME280;22123;52.412;20.970;2023-02-11T13:38:23;101008.03;;;2.05;100.00
36062;BME280;22123;52.412;20.970;2023-02-11T13:41:14;101007.19;;;2.05;100.00
36062;BME280;22123;52.412;20.970;2023-02-11T13:43:41;100811.63;;;0.86;100.00
36062;BME280;22123;52.412;20.970;2023-02-11T13:46:11;100874.75;;;1.34;100.00
36062;BME280;22123;52.412;20.970;2023-02-11T13:48:45;101000.94;;;2.06;100.00
36062;BME280;22123;52.412;20.970;2023-02-11T13:51:16;100884.19;;;1.26;100.00
36062;BME280;22123;52.412;20.970;2023-02-11T13:56:33;101006.78;;;2.11;100.00
36062;BME280;22123;52.412;20.970;2023-02-11T14:04:24;100896.94;;;1.33;100.00
36062;BME280;22123;52.412;20.970;2023-02-11T14:07:24;100860.41;;;1.24;100.00
36062;BME280;22123;52.412;20.970;2023-02-11T14:09:50;100974.16;;;1.96;100.00
36062;BME280;22123;52.412;20.970;2023-02-11T14:12:33;100940.44;;;1.84;100.00
36062;BME280;22123;52.412;20.970;2023-02-11T14:17:35;100985.50;;;1.98;100.00
36062;BME280;22123;52.412;20.970;2023-02-11T14:20:04;100892.72;;;1.44;100.00
36062;BME280;22123;52.412;20.970;2023-02-11T14:22:49;100893.88;;;1.39;100.00
36062;BME280;22123;52.412;20.970;2023-02-11T14:25:26;100940.88;;;1.78;100.00
36062;BME280;22123;52.412;20.970;2023-02-11T14:27:59;101011.56;;;2.06;100.00
36062;BME280;22123;52.412;20.970;2023-02-11T14:38:43;100916.84;;;1.66;100.00
36062;BME280;22123;52.412;20.970;2023-02-11T14:41:37;101036.97;;;2.36;100.00
36062;BME280;22123;52.412;20.970;2023-02-11T14:44:14;100960.44;;;1.89;100.00
36062;BME280;22123;52.412;20.970;2023-02-11T14:46:46;100998.69;;;2.00;100.00
36062;BME280;22123;52.412;20.970;2023-02-11T14:51:47;101004.34;;;2.21;100.00
36062;BME280;22123;52.412;20.970;2023-02-11T14:54:19;100982.75;;;2.13;100.00
36062;BME280;22123;52.412;20.970;2023-02-11T14:57:08;100921.13;;;1.82;100.00